Minerva Zen — SVBN3 — position and weather

sailwx.info

Track history (hours):
 
Tides and Currents Weather Stations Pressure Air Temp Water Temp Dewpoint Dewpoint Depression Visibility Wind Speed Wind Dir Waves Ship Positions

Minerva Zen

Last reported at 2014-Sep-16 07:24 UTC. Time now 2014-Sep-17 07:31 UTC.
Position N 43°17' E 035°48'.

Length 183 m; draft 7.5 m.

Type: Ship. MMSI: 241190000.

Date/timePositionNaut miles runAvg speedWind from/ knotsBaromVisibWave heightAir tempDewpointWater temp
2014-Sep-16 07:24N 43°17' E 035°48'30013.7
2014-Sep-15 09:30N 41°23' E 029°33'1314.3
2014-Sep-15 08:33N 41°17' E 029°17'2110.4
2014-Sep-15 06:32N 41°01' E 028°60'8 7.4
2014-Sep-15 05:31N 40°54' E 028°55'8 8.3
2014-Sep-15 04:32N 40°50' E 028°46'6 6.5
2014-Sep-15 03:33N 40°44' E 028°44'9 8.7
2014-Sep-15 02:32N 40°36' E 028°42'3 0.6
2014-Sep-14 22:04N 40°38' E 028°43'1 1.6
2014-Sep-14 21:31N 40°39' E 028°43'2 1.6
2014-Sep-14 20:11N 40°40' E 028°45'1 1.5
2014-Sep-14 19:29N 40°41' E 028°46'1 1.5
2014-Sep-14 18:31N 40°42' E 028°47'2 1.5
2014-Sep-14 17:28N 40°44' E 028°48'1 1.4
2014-Sep-14 16:33N 40°44' E 028°49'1 1.4
2014-Sep-14 15:33N 40°45' E 028°51'1 1.4
2014-Sep-14 14:29N 40°46' E 028°52'1 1.3
2014-Sep-14 13:33N 40°47' E 028°54'2 1.4
2014-Sep-14 12:28N 40°48' E 028°55'1 1.3
2014-Sep-14 11:33N 40°49' E 028°56'1 1.0
2014-Sep-14 10:33N 40°50' E 028°56'7 7.1
2014-Sep-14 09:30N 40°50' E 028°47'160 8.0
2014-Sep-13 13:29N 39°51' E 025°31'2 1.6
2014-Sep-13 12:33N 39°52' E 025°33'2 1.6
2014-Sep-13 11:33N 39°53' E 025°35'1 1.5
2014-Sep-13 10:33N 39°53' E 025°37'2 1.7
2014-Sep-13 09:33N 39°54' E 025°39'2 1.9
2014-Sep-13 08:32N 39°54' E 025°41'2 1.7
2014-Sep-13 07:21N 39°53' E 025°43'38 9.8
2014-Sep-13 03:28N 39°15' E 025°39'1314.1
2014-Sep-13 02:33N 39°02' E 025°34'1514.2
2014-Sep-13 01:30N 38°48' E 025°30'1613.9
2014-Sep-13 00:21N 38°32' E 025°24'1214.4
2014-Sep-12 23:33N 38°21' E 025°28'1414.4
2014-Sep-12 22:33N 38°08' E 025°34'1414.2
2014-Sep-12 21:33N 37°54' E 025°40'1414.1
2014-Sep-12 20:33N 37°41' E 025°46'1413.8
2014-Sep-12 19:33N 37°28' E 025°51'1413.7
2014-Sep-12 18:33N 37°16' E 025°60'1413.6
2014-Sep-12 17:33N 37°04' E 026°09'1413.2
2014-Sep-12 16:31N 36°53' E 026°18'9513.7
2014-Sep-12 09:33N 35°48' E 027°45'1414.0
2014-Sep-12 08:32N 35°43' E 028°01'23814.0
2014-Sep-11 15:32N 34°18' E 032°32'2713.6
2014-Sep-11 13:33N 34°08' E 033°03'  
2014-Sep-08 09:10N 34°21' E 033°38'4 0.8
2014-Sep-08 04:15N 34°22' E 033°33'1 0.9
2014-Sep-08 03:33N 34°22' E 033°32'1 0.9
2014-Sep-08 02:24N 34°23' E 033°31'2 0.8
2014-Sep-07 23:34N 34°24' E 033°29'1 0.9
2014-Sep-07 22:34N 34°24' E 033°28'1 0.9
2014-Sep-07 21:33N 34°24' E 033°27'1 1.0
2014-Sep-07 20:30N 34°25' E 033°25'1 1.2
2014-Sep-07 19:29N 34°25' E 033°24'1 1.3
2014-Sep-07 18:33N 34°25' E 033°22'1 1.4
2014-Sep-07 17:34N 34°26' E 033°21'1 1.4
2014-Sep-07 16:33N 34°26' E 033°19'1 1.4
2014-Sep-07 15:34N 34°27' E 033°18'1 1.4
2014-Sep-07 14:34N 34°27' E 033°16'2 1.6
2014-Sep-07 13:33N 34°27' E 033°18'1211.7
2014-Sep-07 12:33N 34°21' E 033°30'  
Track history (hours):
 
Tides and Currents Weather Stations Pressure Air Temp Water Temp Dewpoint Dewpoint Depression Visibility Wind Speed Wind Dir Waves Ship Positions

Minerva Zen

Last reported at 2014-Sep-16 07:24 UTC. Time now 2014-Sep-17 07:31 UTC.
Position N 43°17' E 035°48'.

Length 183 m; draft 7.5 m.

Type: Ship. MMSI: 241190000.

Date/timePositionNaut miles runAvg speedWind from/ knotsBaromVisibWave heightAir tempDewpointWater temp
2014-Sep-16 07:24N 43°17' E 035°48'30013.7
2014-Sep-15 09:30N 41°23' E 029°33'1314.3
2014-Sep-15 08:33N 41°17' E 029°17'2110.4
2014-Sep-15 06:32N 41°01' E 028°60'8 7.4
2014-Sep-15 05:31N 40°54' E 028°55'8 8.3
2014-Sep-15 04:32N 40°50' E 028°46'6 6.5
2014-Sep-15 03:33N 40°44' E 028°44'9 8.7
2014-Sep-15 02:32N 40°36' E 028°42'3 0.6
2014-Sep-14 22:04N 40°38' E 028°43'1 1.6
2014-Sep-14 21:31N 40°39' E 028°43'2 1.6
2014-Sep-14 20:11N 40°40' E 028°45'1 1.5
2014-Sep-14 19:29N 40°41' E 028°46'1 1.5
2014-Sep-14 18:31N 40°42' E 028°47'2 1.5
2014-Sep-14 17:28N 40°44' E 028°48'1 1.4
2014-Sep-14 16:33N 40°44' E 028°49'1 1.4
2014-Sep-14 15:33N 40°45' E 028°51'1 1.4
2014-Sep-14 14:29N 40°46' E 028°52'1 1.3
2014-Sep-14 13:33N 40°47' E 028°54'2 1.4
2014-Sep-14 12:28N 40°48' E 028°55'1 1.3
2014-Sep-14 11:33N 40°49' E 028°56'1 1.0
2014-Sep-14 10:33N 40°50' E 028°56'7 7.1
2014-Sep-14 09:30N 40°50' E 028°47'160 8.0
2014-Sep-13 13:29N 39°51' E 025°31'2 1.6
2014-Sep-13 12:33N 39°52' E 025°33'2 1.6
2014-Sep-13 11:33N 39°53' E 025°35'1 1.5
2014-Sep-13 10:33N 39°53' E 025°37'2 1.7
2014-Sep-13 09:33N 39°54' E 025°39'2 1.9
2014-Sep-13 08:32N 39°54' E 025°41'2 1.7
2014-Sep-13 07:21N 39°53' E 025°43'38 9.8
2014-Sep-13 03:28N 39°15' E 025°39'1314.1
2014-Sep-13 02:33N 39°02' E 025°34'1514.2
2014-Sep-13 01:30N 38°48' E 025°30'1613.9
2014-Sep-13 00:21N 38°32' E 025°24'1214.4
2014-Sep-12 23:33N 38°21' E 025°28'1414.4
2014-Sep-12 22:33N 38°08' E 025°34'1414.2
2014-Sep-12 21:33N 37°54' E 025°40'1414.1
2014-Sep-12 20:33N 37°41' E 025°46'1413.8
2014-Sep-12 19:33N 37°28' E 025°51'1413.7
2014-Sep-12 18:33N 37°16' E 025°60'1413.6
2014-Sep-12 17:33N 37°04' E 026°09'1413.2
2014-Sep-12 16:31N 36°53' E 026°18'9513.7
2014-Sep-12 09:33N 35°48' E 027°45'1414.0
2014-Sep-12 08:32N 35°43' E 028°01'23814.0
2014-Sep-11 15:32N 34°18' E 032°32'2713.6
2014-Sep-11 13:33N 34°08' E 033°03'  
2014-Sep-08 09:10N 34°21' E 033°38'4 0.8
2014-Sep-08 04:15N 34°22' E 033°33'1 0.9
2014-Sep-08 03:33N 34°22' E 033°32'1 0.9
2014-Sep-08 02:24N 34°23' E 033°31'2 0.8
2014-Sep-07 23:34N 34°24' E 033°29'1 0.9
2014-Sep-07 22:34N 34°24' E 033°28'1 0.9
2014-Sep-07 21:33N 34°24' E 033°27'1 1.0
2014-Sep-07 20:30N 34°25' E 033°25'1 1.2
2014-Sep-07 19:29N 34°25' E 033°24'1 1.3
2014-Sep-07 18:33N 34°25' E 033°22'1 1.4
2014-Sep-07 17:34N 34°26' E 033°21'1 1.4
2014-Sep-07 16:33N 34°26' E 033°19'1 1.4
2014-Sep-07 15:34N 34°27' E 033°18'1 1.4
2014-Sep-07 14:34N 34°27' E 033°16'2 1.6
2014-Sep-07 13:33N 34°27' E 033°18'1211.7
2014-Sep-07 12:33N 34°21' E 033°30'  

Dump ship's entire track history